Airport View

Enter AWOS ICAO identifier for current METAR.

ex. KFNL

KHIO 181253Z AUTO 13005KT 8SM -RA BKN026 OVC032 06/04 A3011 RMK AO2 SLP196 P0003 T00560039

18 Jan 2020 13:04

Phone: 503-640-2984

Other Area AWOS: KVUO - KSPB - KPDX - KUAO

TAF KHIO 181140Z 1812/1912 14008KT 6SM -RA OVC040 WS020/18040KT FM181400 11011KT P6SM -RA OVC025 WS020/18040KT FM181800 12011KT P6SM -SHRA BKN020 OVC027 FM182100 16006KT P6SM VCSH SCT015 OVC025 FM190100 VRB03KT P6SM BKN020 BKN030 FM190700 00000KT 4SM BR OVC020